Date,TemperatureHighF,TemperatureAvgF,TemperatureLowF,DewpointHighF,DewpointAvgF,DewpointLowF,HumidityHigh,HumidityAvg,HumidityLow,PressureMaxIn,PressureMinIn,WindSpeedMaxMPH,WindSpeedAvgMPH,GustSpeedMaxMPH,PrecipitationSumIn
2013-1-1,52.0,49.5,46.6,48.4,40.5,29.0,90,73,44,29.95,29.76,0,-999,10,0.41
2013-1-2,56.5,50.8,47.0,48.2,45.5,42.4,91,82,67,29.97,29.69,0,-999,10,0.10
2013-1-3,47.0,42.3,29.2,42.5,38.5,26.2,89,86,83,30.11,29.91,0,-999,10,0.00
2013-1-4,67.9,41.0,25.6,43.7,28.1,22.0,90,66,26,30.16,30.04,0,-999,10,0.00
2013-1-5,59.4,39.7,23.6,34.4,26.1,18.6,83,61,31,30.21,30.04,0,-999,10,0.00
2013-1-6,64.8,47.1,33.5,46.2,36.8,27.4,81,68,45,30.05,29.86,0,-999,10,0.02
2013-1-7,73.6,42.9,27.2,43.5,28.5,22.6,86,62,24,30.22,30.03,0,-999,10,0.00
2013-1-8,67.7,40.2,25.9,44.4,30.2,20.6,83,69,40,30.26,30.16,0,-999,10,0.00
2013-1-9,62.3,53.8,47.5,51.6,46.5,40.0,82,76,68,30.26,30.19,0,-999,10,0.00
2013-1-10,86.4,68.1,44.5,58.3,52.6,41.2,88,60,36,30.29,30.16,0,-999,10,0.00
2013-1-11,58.0,52.5,50.8,52.6,49.4,48.0,91,89,82,30.16,29.97,0,-999,10,0.28
2013-1-12,76.3,60.4,51.3,66.6,55.5,48.8,94,85,61,29.99,29.90,0,-999,10,0.01
2013-1-13,77.8,60.9,50.6,64.8,55.4,48.1,93,83,61,29.96,29.87,0,-999,10,0.00
2013-1-14,70.6,62.9,54.9,64.7,59.5,51.7,93,89,81,29.94,29.87,0,-999,10,0.13
2013-1-15,64.4,53.7,45.7,60.3,51.1,43.2,92,91,86,29.96,29.85,0,-999,10,0.09
2013-1-16,50.8,46.3,44.8,48.3,44.0,42.5,93,92,91,29.87,29.79,0,-999,10,0.19
2013-1-17,52.6,50.9,48.1,50.6,48.8,45.9,93,93,92,29.63,29.54,0,-999,0,0.48
2013-1-18,71.6,46.3,30.1,43.6,32.3,25.3,92,64,26,30.30,30.09,0,-999,0,0.48
2013-1-19,70.9,43.3,24.5,43.1,27.7,20.6,87,60,22,30.29,29.99,0,-999,0,0.48
2013-1-20,81.0,51.7,32.9,42.6,32.4,26.1,77,52,23,29.99,29.84,0,-999,0,0.00
2013-1-21,75.4,48.3,27.7,45.8,27.5,17.7,84,51,21,29.89,29.76,0,-999,0,0.00
2013-1-22,64.8,45.1,27.7,25.7,17.2,11.1,63,36,16,30.06,29.84,0,-999,0,0.00
2013-1-23,62.6,43.3,22.5,29.4,23.3,15.4,75,48,24,30.13,29.90,0,-999,0,0.00
2013-1-24,66.1,48.5,29.2,41.0,23.7,6.3,66,41,16,30.28,29.82,0,-999,0,0.00
2013-1-25,32.6,28.7,24.5,26.2,16.6,6.6,79,61,39,30.31,29.91,0,-999,0,0.48
2013-1-26,69.1,39.3,25.6,42.5,28.7,20.7,86,69,32,30.14,29.90,0,-999,0,0.03
2013-1-27,63.0,40.7,25.6,35.9,28.4,20.6,87,64,34,30.35,30.13,0,-999,0,0.48
2013-1-28,53.5,46.0,41.0,44.4,36.4,29.4,87,69,61,30.26,30.08,0,-999,0,0.00
2013-1-29,81.5,58.2,37.4,61.3,49.9,33.9,91,75,49,30.08,29.83,0,-999,0,0.00
2013-1-30,71.6,64.2,49.1,62.7,58.3,43.8,91,81,69,29.83,29.30,0,-999,0,1.65
2013-1-31,61.6,47.0,36.9,44.4,27.6,20.9,83,50,23,29.89,29.44,0,-999,0,0.00
2013-2-1,63.2,44.0,24.1,28.2,20.2,11.5,66,42,18,30.16,29.79,0,-999,0,0.00
2013-2-2,55.3,35.9,19.8,36.0,21.1,11.8,87,60,21,30.18,29.87,0,-999,0,0.48
2013-2-3,67.5,45.6,31.1,38.8,29.9,21.1,87,58,23,29.87,29.69,0,-999,0,0.00
2013-2-4,59.8,38.9,25.6,34.9,24.9,19.4,79,59,31,29.95,29.82,0,-999,0,0.00
2013-2-5,71.5,49.9,31.7,45.0,35.7,24.2,78,61,35,29.82,29.72,0,-999,0,0.01
2013-2-6,85.3,53.6,32.8,49.3,33.2,27.1,87,55,16,30.00,29.81,0,-999,0,0.48
2013-2-7,48.1,42.8,35.8,39.8,34.6,28.2,91,74,51,30.04,29.79,0,-999,0,0.48
2013-2-8,68.6,50.4,39.1,50.6,39.2,28.3,90,68,37,29.94,29.71,0,-999,0,0.01
2013-2-9,80.3,52.2,34.2,35.5,27.2,22.0,69,42,15,30.13,29.91,0,-999,0,0.00
2013-2-10,71.3,48.1,33.5,43.7,34.7,24.7,84,63,26,30.22,29.98,0,-999,0,0.39
2013-2-11,58.0,52.1,46.4,54.9,48.6,41.5,92,88,83,29.98,29.78,0,-999,0,0.11
2013-2-12,73.4,53.2,42.5,48.3,41.7,30.9,91,70,29,29.92,29.72,0,-999,0,0.12
2013-2-13,52.0,46.1,35.3,45.5,41.9,31.5,91,85,75,29.72,29.50,0,-999,0,0.48
2013-2-14,66.2,42.9,28.4,41.6,32.1,25.3,90,69,36,29.89,29.71,0,-999,0,0.00
2013-2-15,72.9,48.6,27.4,46.7,31.6,23.5,88,58,25,29.91,29.75,0,-999,0,0.48
2013-2-16,55.3,38.8,25.4,37.3,29.1,19.1,81,68,46,29.86,29.65,0,-999,0,0.24
2013-2-17,60.8,36.0,17.6,25.2,15.6,7.4,84,51,15,30.07,29.86,0,-999,0,0.29
2013-2-18,66.1,41.4,20.9,34.1,21.9,14.0,80,51,23,30.18,30.02,0,-999,0,0.48
2013-2-19,62.5,44.7,36.0,46.0,32.2,20.6,87,63,39,30.03,29.72,0,-999,0,0.27
2013-2-20,71.1,43.6,23.4,29.6,21.4,16.4,79,47,16,29.95,29.85,0,-999,0,0.05
2013-2-21,76.0,47.9,26.3,34.9,25.8,20.1,79,49,17,30.03,29.87,0,-999,0,0.00
2013-2-22,48.2,41.5,39.6,38.9,36.7,33.3,90,83,56,30.07,29.91,0,-999,0,0.31
2013-2-23,47.7,42.8,39.2,43.2,39.6,36.5,92,89,84,29.95,29.66,0,-999,0,0.48
2013-2-24,82.3,55.9,37.6,53.8,41.2,30.7,92,65,22,29.82,29.68,0,-999,0,0.48
2013-2-25,50.8,42.1,35.6,33.6,30.7,28.2,83,65,47,29.95,29.80,0,-999,0,0.48
2013-2-26,43.0,38.3,33.8,40.6,35.5,31.1,92,89,79,29.85,29.42,0,-999,0,0.87
2013-2-27,66.6,50.4,38.0,40.9,35.5,31.4,84,59,36,29.64,29.48,0,-999,0,0.48
2013-2-28,59.0,47.3,34.7,34.2,28.6,23.0,63,49,34,29.72,29.56,0,-999,0,0.00
2013-3-1,62.1,41.4,27.7,31.4,26.6,21.4,78,57,31,29.76,29.67,0,-999,0,0.48
2013-3-2,52.6,41.5,34.9,41.6,31.7,22.4,84,68,56,29.77,29.67,0,-999,0,0.48
2013-3-3,65.2,39.9,23.9,28.0,21.0,15.1,81,51,22,29.84,29.71,0,-999,0,0.00
2013-3-4,63.7,39.3,22.9,29.6,20.4,13.7,73,50,18,29.98,29.83,0,-999,0,0.00
2013-3-5,74.3,48.1,36.9,51.8,38.2,27.0,89,69,41,29.89,29.46,0,-999,0,0.51
2013-3-6,62.5,45.9,34.4,33.4,26.3,20.0,67,48,29,29.94,29.52,0,-999,0,0.00
2013-3-7,75.8,47.1,25.6,37.0,27.5,20.0,83,52,22,30.05,29.93,0,-999,0,0.48
2013-3-8,78.5,48.3,26.5,35.4,25.7,19.5,78,48,16,30.13,30.00,0,-999,0,0.00
2013-3-9,81.4,51.0,27.4,38.3,29.4,20.8,80,50,18,30.17,30.03,0,-999,0,0.48
2013-3-10,83.7,67.6,37.8,43.6,37.9,30.5,78,36,23,30.10,29.96,0,-999,0,0.00
2013-3-11,70.4,63.4,47.2,52.0,48.4,36.0,82,59,52,29.98,29.64,0,-999,0,0.28
2013-3-12,85.0,61.0,45.2,55.7,41.9,31.6,91,53,25,29.83,29.57,0,-999,0,0.78
2013-3-13,68.8,49.0,31.0,35.5,28.0,18.5,85,51,18,29.92,29.81,0,-999,0,0.00
2013-3-14,65.9,44.1,32.4,25.2,20.3,15.9,63,41,18,30.11,29.98,0,-999,0,0.48
2013-3-15,76.1,60.1,28.3,41.5,35.9,21.4,77,43,28,30.01,29.74,0,-999,0,0.00
2013-3-16,78.5,67.9,58.7,47.0,43.5,39.3,53,42,32,29.75,29.67,0,-999,0,0.48
2013-3-17,85.5,67.3,52.9,51.4,46.3,38.3,66,48,30,29.87,29.69,0,-999,0,0.48
2013-3-18,52.9,45.1,42.1,42.5,40.1,38.5,90,83,66,29.92,29.68,0,-999,0,1.18
2013-3-19,78.3,60.7,42.7,51.8,31.7,22.8,91,38,15,29.87,29.68,0,-999,0,1.18
2013-3-20,67.5,52.6,36.7,30.8,21.7,15.9,70,33,16,29.93,29.63,0,-999,0,0.48
2013-3-21,67.1,42.5,27.7,27.1,20.4,13.6,75,46,15,29.77,29.62,0,-999,0,0.48
2013-3-22,58.7,43.1,24.8,27.5,21.7,16.3,76,45,24,29.90,29.77,0,-999,0,0.48
2013-3-23,53.6,45.9,41.6,46.0,37.7,26.0,86,74,48,29.85,29.69,0,-999,0,0.13
2013-3-24,48.6,44.7,42.1,43.4,41.1,38.5,91,87,80,29.72,29.38,0,-999,0,0.97
2013-3-25,52.2,42.7,36.4,40.1,27.8,21.8,90,57,36,29.75,29.39,0,-999,0,0.01
2013-3-26,59.9,45.9,29.0,29.3,25.1,20.8,73,45,29,30.01,29.75,0,-999,0,0.48
2013-3-27,72.0,50.8,27.7,32.5,25.7,19.9,74,41,19,30.10,29.97,0,-999,0,0.48
2013-3-28,76.7,56.9,26.1,32.7,25.3,19.6,79,35,17,30.12,29.98,0,-999,0,0.48
2013-3-29,73.1,46.4,27.4,38.1,27.7,20.5,78,52,22,30.15,30.03,0,-999,0,0.48
2013-3-30,77.9,67.7,47.7,50.2,44.9,38.3,75,46,30,30.03,29.87,0,-999,0,0.00
2013-3-31,74.0,62.7,51.7,57.9,52.9,45.9,89,72,48,29.84,29.67,0,-999,0,0.43
2013-4-1,86.4,68.9,52.4,54.1,41.1,33.5,88,39,20,29.79,29.67,0,-999,0,0.45
2013-4-2,83.0,58.3,38.9,43.4,35.2,28.7,79,48,15,29.97,29.79,0,-999,0,0.48
2013-4-3,68.2,60.4,51.7,36.5,30.3,22.3,56,33,22,30.06,29.92,0,-999,0,0.48
2013-4-4,51.7,48.8,39.2,37.5,32.6,26.5,87,54,43,30.05,29.80,0,-999,0,0.51
2013-4-5,74.9,51.6,34.7,49.0,39.6,31.0,90,67,26,29.87,29.73,0,-999,0,0.51
2013-4-6,85.0,62.9,35.6,46.2,37.0,30.0,81,44,18,30.03,29.87,0,-999,0,0.00
2013-4-7,82.6,61.0,40.0,50.2,42.4,32.9,80,53,29,30.06,29.91,0,-999,0,0.00
2013-4-8,85.5,65.3,49.9,58.2,49.6,43.3,84,60,33,29.99,29.88,0,-999,0,0.48
2013-4-9,90.4,69.8,51.3,63.4,53.4,46.0,84,59,33,30.02,29.92,0,-999,0,0.48
2013-4-10,94.0,73.8,56.9,64.0,56.7,50.6,84,59,31,29.95,29.77,0,-999,0,0.48
2013-4-11,85.5,71.0,58.9,65.7,59.8,53.1,87,69,44,29.81,29.55,0,-999,0,0.11
2013-4-12,85.7,71.4,56.2,66.2,53.9,37.7,91,60,22,29.66,29.49,0,-999,0,0.76
2013-4-13,92.9,64.8,41.8,50.2,41.8,36.2,84,50,18,29.84,29.66,0,-999,0,0.48
2013-4-14,75.1,59.9,43.6,52.9,46.8,38.5,84,64,39,29.90,29.78,0,-999,0,0.02
2013-4-15,86.4,65.0,56.7,65.6,56.9,52.1,89,76,46,30.01,29.78,0,-999,0,0.22
2013-4-16,93.1,71.6,59.6,66.9,58.8,55.2,87,67,36,30.10,29.99,0,-999,0,0.00
2013-4-17,95.6,69.3,58.5,67.4,60.0,54.7,88,75,39,30.06,29.90,0,-999,0,0.31
2013-4-18,94.7,71.4,58.9,68.8,61.0,56.0,91,73,38,29.97,29.79,0,-999,0,0.00
2013-4-19,76.3,64.8,50.9,65.6,59.4,47.7,89,83,67,29.79,29.60,0,-999,0,0.82
2013-4-20,78.3,57.2,41.8,47.7,39.3,31.5,89,56,24,30.08,29.76,0,-999,0,0.48
2013-4-21,78.8,55.9,36.7,45.5,39.2,32.3,86,58,29,30.21,30.07,0,-999,0,0.48
2013-4-22,78.5,57.4,43.6,45.1,39.3,35.1,79,55,27,30.21,30.01,0,-999,0,0.00
2013-4-23,87.5,59.6,37.1,53.7,43.0,32.0,85,59,28,30.08,29.91,0,-999,0,0.48
2013-4-24,78.5,63.5,50.8,58.7,53.2,44.2,89,71,46,29.95,29.84,0,-999,0,0.48
2013-4-25,90.0,65.4,50.2,58.4,47.7,39.7,89,59,21,30.09,29.88,0,-999,0,0.48
2013-4-26,87.5,62.0,39.4,48.2,40.8,33.8,83,53,21,30.23,30.09,0,-999,0,0.00
2013-4-27,67.0,58.0,54.5,57.9,51.9,47.6,89,80,67,30.17,30.05,0,-999,0,0.37
2013-4-28,55.8,54.9,53.6,53.5,52.2,50.7,92,91,88,30.06,29.86,0,-999,0,1.87
2013-4-29,83.2,64.6,54.7,64.4,56.8,52.4,93,78,46,29.88,29.74,0,-999,0,0.08
2013-4-30,88.2,64.6,50.9,67.0,56.4,47.8,92,77,46,29.98,29.79,0,-999,0,0.00
2013-5-1,72.2,61.8,52.2,58.3,54.5,48.8,91,78,60,30.07,29.98,0,-999,0,0.48
2013-5-2,63.2,60.9,57.6,59.0,56.9,54.4,89,87,82,30.08,30.02,0,-999,0,0.06
2013-5-3,72.2,60.8,57.1,61.3,55.2,52.9,91,82,65,30.02,29.88,0,-999,0,0.04
2013-5-4,59.0,55.5,52.2,54.2,48.7,43.8,92,78,68,29.88,29.74,0,-999,0,0.54
2013-5-5,57.2,53.6,51.5,54.9,51.4,49.3,94,92,89,29.77,29.63,0,-999,0,2.58
2013-5-6,72.7,58.2,49.7,55.3,51.1,44.4,94,79,45,29.73,29.61,0,-999,0,0.48
2013-5-7,68.2,50.4,44.5,56.3,46.2,41.0,90,86,57,29.77,29.69,0,-999,0,0.28
2013-5-8,86.8,61.4,47.9,59.8,51.8,44.9,92,74,37,29.85,29.73,0,-999,0,0.48
2013-5-9,92.9,66.6,50.0,64.0,54.5,46.5,90,69,32,29.91,29.82,0,-999,0,0.48
2013-5-10,88.2,68.8,54.5,63.9,58.3,50.4,89,72,41,29.90,29.77,0,-999,0,0.35
2013-5-11,82.1,75.2,59.0,66.9,62.6,56.4,91,66,53,29.79,29.65,0,-999,0,0.06
2013-5-12,87.5,65.5,52.2,59.7,46.4,34.1,85,57,16,29.84,29.68,0,-999,0,0.00
2013-5-13,81.7,54.0,40.0,45.3,37.4,35.0,83,60,22,30.00,29.87,0,-999,0,0.05
2013-5-14,81.0,59.3,39.4,49.5,41.5,34.1,85,56,30,30.07,29.91,0,-999,0,0.00
2013-5-15,94.3,79.5,62.1,60.8,58.4,52.3,77,51,33,29.92,29.77,0,-999,0,0.48
2013-5-16,82.8,75.4,65.5,61.1,59.2,57.0,74,58,48,29.86,29.79,0,-999,0,0.48
2013-5-17,90.9,75.1,58.0,64.2,59.4,53.8,87,61,36,29.91,29.84,0,-999,0,0.48
2013-5-18,78.5,70.1,63.4,69.9,63.5,58.2,87,80,72,29.92,29.87,0,-999,0,0.48
2013-5-19,79.7,70.0,66.4,67.3,64.5,62.7,91,84,66,29.93,29.85,0,-999,0,0.12
2013-5-20,88.0,72.2,64.3,69.6,65.2,61.3,92,79,52,29.93,29.83,0,-999,0,0.12
2013-5-21,101.0,78.1,63.5,73.7,65.9,59.9,91,69,36,29.87,29.76,0,-999,0,0.48
2013-5-22,94.7,76.1,63.4,71.9,65.4,59.5,89,72,45,29.83,29.68,0,-999,0,0.65
2013-5-23,90.4,74.1,63.9,70.8,62.6,55.2,91,70,42,29.79,29.65,0,-999,0,0.22
2013-5-24,83.5,67.9,56.2,57.0,48.9,34.5,87,56,19,30.03,29.72,0,-999,0,0.48
2013-5-25,86.4,69.3,44.3,50.2,46.3,38.2,83,47,25,30.12,29.98,0,-999,0,0.48
2013-5-26,88.9,70.9,52.7,53.8,50.5,46.0,82,52,26,30.11,29.98,0,-999,0,0.48
2013-5-27,93.1,71.3,52.0,63.2,56.1,47.3,87,63,34,30.08,29.95,0,-999,0,0.48
2013-5-28,94.7,77.8,60.8,66.6,62.4,55.9,86,62,38,30.06,29.95,0,-999,0,0.03
2013-5-29,91.1,71.5,59.9,65.5,61.6,55.4,86,73,40,30.07,29.98,0,-999,0,0.00
2013-5-30,97.6,75.7,60.5,66.4,61.9,55.8,87,66,35,30.10,29.97,0,-999,0,0.00
2013-5-31,96.8,78.8,63.0,70.1,64.3,59.1,88,64,37,30.05,29.92,0,-999,0,0.48
2013-6-1,94.3,81.3,66.4,67.9,65.3,61.8,85,60,41,29.96,29.83,0,-999,0,0.00
2013-6-2,80.5,73.5,66.6,70.6,66.9,63.1,91,80,69,29.87,29.73,0,-999,0,1.59
2013-6-3,93.2,81.4,66.4,73.3,68.5,64.0,92,67,49,29.76,29.67,0,-999,0,0.48
2013-6-4,95.4,79.3,65.9,71.2,66.7,62.6,89,67,42,29.87,29.77,0,-999,0,0.00
2013-6-5,95.0,75.5,69.3,74.1,68.2,64.4,91,79,51,29.89,29.77,0,-999,0,2.07
2013-6-6,79.2,73.8,66.2,72.9,69.3,63.8,93,86,76,29.81,29.62,0,-999,0,0.84
2013-6-7,89.3,75.8,68.0,74.5,69.3,65.9,93,81,57,29.67,29.50,0,-999,0,0.57
2013-6-8,91.8,76.9,67.3,73.2,67.3,64.8,93,74,48,29.90,29.66,0,-999,0,0.48
2013-6-9,95.0,79.2,65.7,75.4,69.3,62.4,90,73,50,29.94,29.86,0,-999,0,0.56
2013-6-10,82.3,72.8,67.7,71.8,68.0,64.3,93,85,66,29.88,29.74,0,-999,0,0.63
2013-6-11,100.8,80.5,68.0,75.0,69.2,65.0,93,72,35,29.83,29.75,0,-999,0,0.53
2013-6-12,100.3,79.8,68.8,73.8,71.1,65.4,91,76,43,29.85,29.75,0,-999,0,0.53
2013-6-13,97.0,81.6,69.8,72.8,70.2,66.1,88,71,44,29.75,29.53,0,-999,0,0.48
2013-6-14,98.5,76.2,60.7,66.4,61.5,56.8,91,65,32,29.86,29.62,0,-999,0,0.00
2013-6-15,96.3,74.3,58.0,66.5,59.8,54.2,89,65,34,29.97,29.86,0,-999,0,0.48
2013-6-16,94.0,76.9,63.0,70.2,64.3,58.4,89,68,41,29.98,29.84,0,-999,0,0.48
2013-6-17,90.7,77.2,69.5,75.1,69.3,65.5,89,77,54,29.88,29.77,0,-999,0,0.48
2013-6-18,86.8,76.9,71.5,75.6,70.0,66.9,88,80,63,29.80,29.62,0,-999,0,0.16
2013-6-19,92.3,78.3,68.6,72.9,68.4,64.8,91,74,51,29.90,29.73,0,-999,0,0.07
2013-6-20,94.9,84.9,67.9,73.2,67.6,62.6,86,58,43,30.04,29.92,0,-999,0,0.00
2013-6-21,93.8,77.0,62.1,68.6,63.8,58.5,88,67,39,30.08,30.00,0,-999,0,0.00
2013-6-22,97.4,75.5,60.3,68.3,64.6,56.4,88,71,39,30.04,29.93,0,-999,0,0.48
2013-6-23,98.5,80.3,68.8,74.9,68.9,64.7,88,71,43,30.03,29.92,0,-999,0,0.08
2013-6-24,96.3,80.4,68.0,76.2,70.0,65.3,92,73,46,30.04,29.92,0,-999,0,0.57
2013-6-25,95.2,79.9,69.8,72.9,69.1,66.4,90,72,45,29.98,29.85,0,-999,0,0.48
2013-6-26,96.8,79.5,70.7,75.4,70.5,66.3,90,75,48,29.88,29.74,0,-999,0,0.48
2013-6-27,94.9,81.2,72.0,75.8,71.8,67.6,91,75,50,29.79,29.56,0,-999,0,0.22
2013-6-28,101.5,81.2,69.1,75.9,70.6,66.4,92,73,40,29.62,29.43,0,-999,0,0.48
2013-6-29,96.5,80.0,69.8,74.6,68.7,65.8,91,71,39,29.54,29.46,0,-999,0,0.48
2013-6-30,90.9,76.2,70.0,75.0,68.9,64.8,88,79,54,29.66,29.53,0,-999,0,0.48
2013-7-1,90.9,76.5,69.5,75.3,69.4,66.1,90,80,58,29.79,29.64,0,-999,0,1.09
2013-7-2,85.9,75.2,68.9,77.8,70.4,66.1,92,86,70,29.95,29.78,0,-999,0,1.41
2013-7-3,88.9,75.7,68.6,76.3,70.6,65.9,92,85,63,30.03,29.92,0,-999,0,0.98
2013-7-4,93.6,74.4,67.1,79.6,69.7,64.9,94,86,60,30.04,29.94,0,-999,0,3.24
2013-7-5,97.4,76.5,69.5,79.5,71.1,67.1,94,85,52,30.06,29.98,0,-999,0,0.26
2013-7-6,94.5,77.7,71.8,78.7,72.2,69.0,93,84,53,30.04,29.93,0,-999,0,0.91
2013-7-7,91.4,78.7,72.4,75.6,72.0,69.6,93,81,58,30.00,29.90,0,-999,0,0.01
2013-7-8,99.0,79.8,70.9,76.4,71.2,68.2,92,77,46,30.02,29.92,0,-999,0,0.65
2013-7-9,97.2,81.0,70.2,77.8,71.9,67.4,92,76,48,30.01,29.87,0,-999,0,1.25
2013-7-10,95.8,78.1,69.8,77.8,71.2,67.1,92,80,53,29.97,29.78,0,-999,0,0.48
2013-7-11,90.0,78.1,72.9,77.7,72.3,69.1,92,83,63,29.80,29.70,0,-999,0,0.47
2013-7-12,96.3,76.0,65.9,77.4,69.2,61.1,91,81,53,29.82,29.71,0,-999,0,0.09
2013-7-13,85.9,74.2,67.9,74.0,69.0,64.9,91,84,65,29.92,29.81,0,-999,0,0.48
2013-7-14,87.3,75.9,70.2,76.1,71.3,67.1,92,86,67,30.08,29.91,0,-999,0,0.68
2013-7-15,96.5,78.2,68.0,77.3,70.6,65.6,94,79,50,30.15,30.05,0,-999,0,0.04
2013-7-16,102.1,82.2,68.9,79.2,71.2,66.1,93,73,40,30.13,30.05,0,-999,0,0.01
2013-7-17,103.5,80.9,70.7,79.2,71.6,65.9,90,76,43,30.07,29.94,0,-999,0,0.28
2013-7-18,101.2,81.3,67.7,79.1,71.0,65.0,92,74,44,30.02,29.88,0,-999,0,0.48
2013-7-19,100.8,82.0,70.4,76.9,71.9,67.0,91,74,45,29.95,29.81,0,-999,0,0.00
2013-7-20,95.0,79.6,73.1,77.5,72.2,69.7,91,79,54,29.87,29.77,0,-999,0,0.48
2013-7-21,98.8,79.2,71.5,78.8,71.6,68.7,92,79,47,29.85,29.75,0,-999,0,0.91
2013-7-22,92.2,79.1,70.6,76.2,70.8,67.9,92,77,54,29.83,29.68,0,-999,0,0.09
2013-7-23,98.8,80.7,69.3,74.8,70.3,66.6,92,73,42,29.73,29.61,0,-999,0,0.48
2013-7-24,100.3,81.1,70.0,77.9,70.8,66.5,90,73,47,29.67,29.59,0,-999,0,0.00
2013-7-25,98.1,78.3,67.3,75.6,68.7,63.3,90,74,46,29.85,29.66,0,-999,0,0.48
2013-7-26,98.5,78.8,66.2,76.6,68.9,63.1,91,74,45,29.92,29.82,0,-999,0,0.01
2013-7-27,92.2,77.2,72.0,78.0,70.7,68.0,92,81,55,29.85,29.72,0,-999,0,2.05
2013-7-28,93.6,78.4,68.8,74.9,68.8,66.1,92,75,46,29.84,29.74,0,-999,0,0.48
2013-7-29,98.5,79.0,66.4,74.3,67.6,63.4,90,71,38,29.97,29.83,0,-999,0,0.48
2013-7-30,98.6,84.2,64.6,75.6,70.8,61.3,89,66,44,30.04,29.94,0,-999,0,0.48
2013-7-31,88.9,77.8,72.2,77.0,71.0,68.1,91,80,58,29.98,29.80,0,-999,0,0.01
2013-8-1,96.5,79.0,71.6,76.7,71.0,66.4,90,78,51,29.82,29.71,0,-999,0,0.26
2013-8-2,102.1,81.0,66.4,76.2,69.9,63.7,92,72,41,29.86,29.74,0,-999,0,0.00
2013-8-3,96.7,81.2,72.2,73.6,70.0,66.7,90,71,42,29.85,29.78,0,-999,0,0.48
2013-8-4,100.3,82.3,70.7,75.6,69.7,65.2,91,69,42,29.85,29.76,0,-999,0,0.00
2013-8-5,96.8,79.8,69.5,74.4,68.2,64.1,85,69,44,29.90,29.79,0,-999,0,0.00
2013-8-6,94.7,78.1,69.5,78.4,70.1,64.8,90,77,56,29.88,29.77,0,-999,0,1.69
2013-8-7,85.9,76.2,71.8,76.4,71.2,68.6,91,85,71,29.90,29.82,0,-999,0,0.69
2013-8-8,96.5,79.4,71.6,77.6,72.3,69.2,94,80,53,29.89,29.82,0,-999,0,0.48
2013-8-9,96.5,79.9,72.4,79.5,73.0,69.4,92,81,54,29.91,29.83,0,-999,0,0.13
2013-8-10,99.7,82.3,72.2,78.4,72.8,69.2,93,75,47,29.93,29.86,0,-999,0,0.03
2013-8-11,100.4,80.0,70.2,77.1,70.9,67.0,91,76,44,29.95,29.87,0,-999,0,0.00
2013-8-12,103.3,78.7,70.7,79.2,70.7,67.9,91,78,42,29.90,29.78,0,-999,0,0.48
2013-8-13,95.8,81.4,72.5,78.1,71.5,67.1,91,74,47,29.80,29.64,0,-999,0,0.00
2013-8-14,91.4,77.5,69.5,72.4,66.5,62.4,88,70,49,29.87,29.69,0,-999,0,0.00
2013-8-15,82.8,71.0,63.5,64.3,60.9,58.7,87,72,49,29.95,29.86,0,-999,0,0.48
2013-8-16,82.3,66.4,61.7,64.1,59.9,57.8,90,80,51,29.98,29.89,0,-999,0,0.48
2013-8-17,70.6,65.9,62.3,64.8,61.6,58.4,90,86,80,30.00,29.93,0,-999,0,0.48
2013-8-18,81.9,69.5,65.0,71.0,65.4,62.3,93,87,67,30.03,29.95,0,-999,0,0.59
2013-8-19,89.6,77.1,68.6,72.8,68.4,64.7,93,76,56,29.99,29.90,0,-999,0,1.98
2013-8-20,87.8,76.2,67.9,73.2,69.1,64.5,90,79,59,30.01,29.94,0,-999,0,0.48
2013-8-21,92.0,75.8,70.7,77.9,70.5,67.3,92,84,61,30.05,29.94,0,-999,0,0.48
2013-8-22,101.3,78.0,67.5,78.8,69.8,65.3,93,78,42,29.98,29.85,0,-999,0,0.50
2013-8-23,101.7,81.4,69.3,77.9,70.6,65.9,92,73,44,29.88,29.78,0,-999,0,0.01
2013-8-24,94.3,81.0,64.4,70.2,65.6,59.7,88,61,43,30.09,29.88,0,-999,0,0.48
2013-8-25,94.0,72.4,58.1,69.0,60.3,54.3,88,69,39,30.19,30.08,0,-999,0,0.00
2013-8-26,98.8,74.8,56.7,69.0,61.4,52.9,89,67,34,30.14,29.95,0,-999,0,0.00
2013-8-27,103.0,80.4,62.6,73.7,66.1,58.7,89,66,34,29.98,29.83,0,-999,0,0.48
2013-8-28,103.3,80.9,66.4,76.5,69.2,62.7,90,70,40,29.86,29.76,0,-999,0,0.48
2013-8-29,108.0,79.1,69.1,77.6,70.3,65.7,90,77,35,29.79,29.71,0,-999,0,0.48
2013-8-30,98.1,80.5,72.4,77.3,71.3,67.1,91,75,47,29.87,29.76,0,-999,0,0.62
2013-8-31,98.1,77.6,70.2,77.1,69.6,65.8,90,78,47,29.79,29.71,0,-999,0,0.51
2013-9-1,97.9,78.0,68.8,76.8,70.3,66.1,93,79,49,29.75,29.64,0,-999,0,0.00
2013-9-2,101.7,81.7,72.9,77.2,71.9,69.0,91,75,42,29.74,29.64,0,-999,0,0.48
2013-9-3,104.4,81.6,68.0,74.8,69.5,64.0,90,71,33,29.79,29.65,0,-999,0,0.04
2013-9-4,104.6,81.0,66.8,73.1,67.7,63.4,90,68,35,29.91,29.79,0,-999,0,0.00
2013-9-5,101.5,79.8,65.2,75.5,67.9,61.6,89,70,38,29.95,29.86,0,-999,0,0.48
2013-9-6,101.9,76.8,62.6,69.6,63.7,58.9,90,68,33,30.00,29.88,0,-999,0,0.48
2013-9-7,97.0,71.1,60.8,70.6,61.8,56.6,89,75,38,29.95,29.82,0,-999,0,0.00
2013-9-8,97.4,71.6,64.6,73.3,64.1,60.3,86,79,39,29.82,29.76,0,-999,0,0.00
2013-9-9,104.0,80.4,65.2,76.2,67.5,61.0,89,69,35,29.95,29.82,0,-999,0,0.48
2013-9-10,103.5,78.7,65.3,76.7,67.2,61.7,89,71,35,30.06,29.95,0,-999,0,0.48
2013-9-11,104.4,80.0,64.3,72.9,66.2,60.3,89,67,33,30.04,29.91,0,-999,0,0.48
2013-9-12,100.3,76.7,67.9,77.0,68.3,63.8,88,77,43,29.91,29.69,0,-999,0,0.12
2013-9-13,103.9,78.8,66.1,70.3,63.7,52.7,91,64,26,29.72,29.61,0,-999,0,0.48
2013-9-14,94.7,72.8,54.9,63.0,56.0,49.3,84,59,33,29.91,29.72,0,-999,0,0.48
2013-9-15,98.3,76.9,58.0,70.4,63.5,54.2,88,66,39,30.02,29.91,0,-999,0,0.48
2013-9-16,100.4,78.5,65.2,70.6,65.6,60.9,86,67,38,29.96,29.87,0,-999,0,0.00
2013-9-17,85.7,74.3,66.1,63.8,59.8,57.9,76,62,44,30.08,29.95,0,-999,0,0.00
2013-9-18,85.0,70.6,61.2,61.1,58.1,53.9,79,66,42,30.10,29.97,0,-999,0,0.48
2013-9-19,95.2,77.6,57.6,68.8,64.1,53.8,87,66,40,30.00,29.89,0,-999,0,0.00
2013-9-20,97.6,84.0,62.1,71.6,65.2,58.2,88,56,35,29.90,29.74,0,-999,0,0.48
2013-9-21,76.3,69.3,64.1,70.4,64.9,59.5,92,86,78,29.75,29.45,0,-999,0,2.24
2013-9-22,95.4,72.1,56.5,68.6,60.5,54.2,93,72,35,29.72,29.55,0,-999,0,0.01
2013-9-23,92.7,72.1,57.8,64.5,57.9,53.8,89,65,38,29.87,29.73,0,-999,0,0.48
2013-9-24,87.3,63.9,54.4,66.2,56.2,50.1,89,78,46,29.88,29.76,0,-999,0,0.48
2013-9-25,77.2,66.6,62.8,66.1,61.5,59.8,91,84,63,29.75,29.68,0,-999,0,1.67
2013-9-26,90.7,69.0,55.8,67.9,59.0,50.7,93,74,40,29.85,29.69,0,-999,0,0.00
2013-9-27,94.3,68.6,50.8,65.7,55.2,47.4,91,67,33,29.98,29.84,0,-999,0,0.48
2013-9-28,89.1,65.8,51.1,63.6,54.0,47.4,90,69,38,30.06,29.95,0,-999,0,0.48
2013-9-29,89.8,64.1,50.4,63.5,54.0,46.4,89,73,39,29.99,29.85,0,-999,0,0.00
2013-9-30,94.0,70.3,54.5,67.2,57.0,50.6,90,67,33,29.91,29.81,0,-999,0,0.00
2013-10-1,99.2,71.1,52.4,69.8,56.6,48.3,89,66,29,29.96,29.86,0,-999,0,0.00
2013-10-2,103.7,73.9,55.4,72.4,59.8,51.3,88,66,30,29.97,29.88,0,-999,0,0.00
2013-10-3,97.4,78.2,57.4,65.4,60.9,53.6,88,59,32,29.94,29.88,0,-999,0,0.48
2013-10-4,102.8,77.6,57.2,70.6,62.1,53.1,88,64,31,29.97,29.89,0,-999,0,0.48
2013-10-5,101.5,98.5,94.3,68.3,67.0,66.2,41,36,32,29.94,29.85,0,-999,0,0.00
2013-10-6,98.5,78.2,59.9,69.9,62.9,56.0,87,63,35,29.86,29.72,0,-999,0,0.00
2013-12-6,83.2,71.2,67.1,66.3,63.3,60.6,91,77,51,29.87,29.77,0,-999,0,0.04
2013-12-7,68.8,58.8,49.9,63.6,52.4,43.3,90,80,66,30.16,29.80,0,-999,0,0.27
2013-12-8,49.9,41.7,37.3,43.1,38.1,34.6,91,87,77,30.17,30.03,0,-999,0,0.15
2013-12-9,46.4,41.8,37.1,44.5,39.5,34.4,93,91,90,30.07,29.83,0,-999,0,0.68
2013-12-10,70.4,50.6,35.3,57.7,40.0,19.0,94,70,34,30.11,29.69,0,-999,0,0.16
2013-12-11,67.9,41.4,25.0,40.4,25.5,19.9,84,58,23,30.23,30.08,0,-999,0,0.00
2013-12-12,72.2,40.3,23.8,39.0,23.6,19.1,84,58,18,30.19,30.07,0,-999,0,0.00
2013-12-13,65.3,40.7,22.0,36.9,25.3,16.3,81,58,26,30.16,30.02,0,-999,0,0.00
2013-12-14,43.9,41.9,39.6,40.0,36.5,31.8,90,81,70,30.04,29.61,0,-999,0,0.85
2013-12-15,71.5,48.1,30.2,48.0,37.3,24.5,91,69,34,29.91,29.55,0,-999,0,0.01
2013-12-16,74.2,45.9,27.0,40.4,29.6,22.5,86,58,24,29.98,29.88,0,-999,0,0.00
2013-12-17,71.5,53.2,37.1,39.9,32.9,27.2,69,48,29,29.94,29.77,0,-999,0,0.00
2013-12-18,72.4,45.0,27.5,37.3,23.9,18.3,76,48,18,30.08,29.85,0,-999,0,0.00
2013-12-19,71.3,44.3,26.5,37.1,25.5,19.8,79,54,16,30.12,30.00,0,-999,0,0.00
2013-12-20,58.9,46.6,35.6,46.2,37.6,27.3,82,71,57,30.04,29.94,0,-999,0,0.00
2013-12-21,70.4,56.4,43.6,61.3,50.9,38.8,90,82,71,29.95,29.80,0,-999,0,0.00
2013-12-22,71.5,64.9,60.8,65.8,61.2,58.5,93,88,80,29.87,29.77,0,-999,0,1.98
2013-12-23,61.0,56.3,46.3,59.0,52.9,39.8,93,88,78,29.97,29.79,0,-999,0,1.11
2013-12-24,67.3,45.2,28.8,44.9,30.3,17.4,88,59,29,30.21,29.95,0,-999,0,0.00
2013-12-25,62.6,37.2,22.0,26.4,19.4,14.6,77,53,21,30.32,30.15,0,-999,0,0.00
2013-12-26,75.2,43.4,29.2,36.2,26.5,22.6,78,56,21,30.16,30.02,0,-999,0,0.00
2013-12-27,70.9,40.1,24.7,39.5,24.8,19.4,82,60,23,30.25,30.13,0,-999,0,0.00
2013-12-28,52.9,37.7,24.3,39.7,28.8,18.9,85,71,48,30.19,29.89,0,-999,0,0.36
2013-12-29,73.6,49.0,40.7,55.1,42.7,36.2,90,80,50,29.90,29.60,0,-999,0,0.91
2013-12-30,56.0,44.5,33.8,45.3,38.0,30.4,90,78,60,29.92,29.75,0,-999,0,0.00
2013-12-31,63.2,43.9,32.6,39.4,32.9,27.1,87,68,31,30.15,29.91,0,-999,0,0.00
2014-1-1,54.7,40.2,30.1,40.6,30.9,26.1,86,71,45,30.16,29.92,0,-999,0,0.00
2014-1-2,47.2,43.5,33.7,44.4,38.4,18.9,90,82,55,29.93,29.46,0,-999,0,0.26